createdAt,value
2022-08-17T00:01:09.913Z,96.18
2022-08-17T00:03:51.943Z,96.63
2022-08-17T00:06:29.358Z,95.48
2022-08-17T00:09:00.868Z,95.07
2022-08-17T00:12:40.551Z,96.55
2022-08-17T00:14:37.779Z,97.02
2022-08-17T00:17:23.350Z,96.89
2022-08-17T00:19:57.572Z,95.80
2022-08-17T00:22:46.763Z,93.64
2022-08-17T00:25:17.355Z,94.43
2022-08-17T00:27:49.579Z,95.72
2022-08-17T00:30:16.664Z,95.29
2022-08-17T00:33:12.633Z,94.74
2022-08-17T00:35:42.736Z,94.22
2022-08-17T00:38:12.732Z,94.05
2022-08-17T00:40:49.432Z,94.00
2022-08-17T00:43:21.100Z,94.22
2022-08-17T00:45:50.234Z,94.96
2022-08-17T00:48:28.957Z,96.78
2022-08-17T00:51:23.658Z,97.23
2022-08-17T00:53:56.772Z,97.87
2022-08-17T00:56:34.771Z,98.19
2022-08-17T00:59:04.655Z,97.95
2022-08-17T01:01:34.856Z,98.19
2022-08-17T01:04:09.182Z,98.03
2022-08-17T01:06:36.606Z,97.86
2022-08-17T01:09:07.184Z,96.93
2022-08-17T01:11:53.803Z,95.81
2022-08-17T01:14:26.828Z,95.94
2022-08-17T01:17:01.986Z,97.36
2022-08-17T01:19:32.953Z,97.37
2022-08-17T01:22:23.123Z,97.89
2022-08-17T01:25:03.040Z,98.35
2022-08-17T01:27:38.679Z,98.92
2022-08-17T01:30:56.685Z,99.73
2022-08-17T01:32:58.509Z,99.98
2022-08-17T01:35:25.679Z,100.00
2022-08-17T01:37:53.310Z,100.00
2022-08-17T01:40:50.485Z,100.00
2022-08-17T01:43:33.315Z,100.00
2022-08-17T01:46:04.490Z,99.41
2022-08-17T01:48:34.764Z,98.88
2022-08-17T01:51:07.436Z,98.74
2022-08-17T01:53:42.824Z,99.56
2022-08-17T01:56:22.175Z,99.22
2022-08-17T01:59:01.446Z,99.77
2022-08-17T02:01:30.774Z,99.47
2022-08-17T02:04:03.141Z,99.11
2022-08-17T02:06:45.002Z,99.23
2022-08-17T02:09:16.898Z,98.41
2022-08-17T02:11:58.075Z,99.13
2022-08-17T02:14:27.282Z,100.00
2022-08-17T02:16:56.582Z,100.00
2022-08-17T02:19:25.695Z,100.00
2022-08-17T02:21:54.986Z,100.00
2022-08-17T02:25:01.115Z,100.00
2022-08-17T02:27:53.747Z,100.00
2022-08-17T02:30:59.779Z,100.00
2022-08-17T02:33:25.333Z,100.00
2022-08-17T02:36:13.338Z,100.00
2022-08-17T02:38:48.408Z,100.00
2022-08-17T02:41:23.726Z,100.00
2022-08-17T02:43:51.546Z,100.00
2022-08-17T02:46:21.677Z,100.00
2022-08-17T02:48:52.016Z,100.00
2022-08-17T02:51:44.298Z,100.00
2022-08-17T02:54:39.672Z,100.00
2022-08-17T02:56:58.331Z,100.00
2022-08-17T02:59:31.817Z,100.00
2022-08-17T03:01:59.982Z,100.00
2022-08-17T03:04:35.545Z,100.00
2022-08-17T03:07:13.020Z,100.00
2022-08-17T03:09:40.180Z,100.00
2022-08-17T03:12:14.034Z,100.00
2022-08-17T03:14:42.272Z,100.00
2022-08-17T03:17:34.794Z,100.00
2022-08-17T03:20:03.626Z,100.00
2022-08-17T03:22:38.632Z,100.00
2022-08-17T03:25:31.346Z,100.00
2022-08-17T03:28:17.826Z,100.00
2022-08-17T03:30:45.038Z,100.00
2022-08-17T03:33:14.044Z,100.00
2022-08-17T03:35:54.041Z,100.00
2022-08-17T03:38:22.341Z,100.00
2022-08-17T03:40:59.709Z,100.00
2022-08-17T03:43:33.710Z,100.00
2022-08-17T03:46:46.716Z,100.00
2022-08-17T03:49:39.919Z,100.00
2022-08-17T03:52:26.673Z,100.00
2022-08-17T03:55:14.503Z,100.00
2022-08-17T03:57:43.549Z,100.00
2022-08-17T04:00:11.438Z,100.00
2022-08-17T04:02:39.958Z,100.00
2022-08-17T04:05:12.359Z,100.00
2022-08-17T04:07:40.473Z,100.00
2022-08-17T04:10:16.361Z,100.00
2022-08-17T04:12:58.868Z,100.00
2022-08-17T04:15:33.809Z,100.00
2022-08-17T04:18:01.977Z,100.00
2022-08-17T04:20:34.073Z,100.00
2022-08-17T04:23:10.869Z,100.00
2022-08-17T04:25:50.599Z,100.00
2022-08-17T04:28:20.829Z,100.00
2022-08-17T04:30:49.039Z,100.00
2022-08-17T04:33:24.365Z,100.00
2022-08-17T04:35:57.183Z,100.00
2022-08-17T04:38:27.499Z,100.00
2022-08-17T04:41:16.881Z,100.00
2022-08-17T04:43:48.046Z,100.00
2022-08-17T04:46:21.568Z,100.00
2022-08-17T04:48:51.829Z,100.00
2022-08-17T04:51:37.611Z,100.00
2022-08-17T04:54:15.893Z,100.00
2022-08-17T04:56:43.471Z,100.00
2022-08-17T04:59:20.491Z,100.00
2022-08-17T05:01:53.566Z,100.00
2022-08-17T05:04:33.990Z,100.00
2022-08-17T05:07:24.008Z,100.00
2022-08-17T05:09:52.632Z,100.00
2022-08-17T05:12:25.635Z,100.00
2022-08-17T05:14:59.687Z,99.77
2022-08-17T05:17:37.205Z,99.25
2022-08-17T05:20:11.088Z,98.27
2022-08-17T05:22:51.572Z,97.76
2022-08-17T05:25:27.955Z,98.43
2022-08-17T05:28:02.117Z,98.85
2022-08-17T05:30:29.513Z,98.03
2022-08-17T05:33:28.006Z,96.55
2022-08-17T05:36:08.974Z,95.62
2022-08-17T05:39:16.124Z,95.06
2022-08-17T05:41:48.616Z,94.28
2022-08-17T05:44:24.756Z,94.51
2022-08-17T05:46:54.560Z,94.49
2022-08-17T05:49:38.026Z,93.73
2022-08-17T05:52:26.614Z,94.02
2022-08-17T05:55:13.817Z,92.30
2022-08-17T05:57:53.210Z,92.31
2022-08-17T06:00:32.220Z,91.76
2022-08-17T06:03:05.678Z,90.21
2022-08-17T06:06:03.837Z,88.37
2022-08-17T06:08:41.324Z,89.26
2022-08-17T06:11:40.520Z,88.47
2022-08-17T06:14:30.414Z,87.39
2022-08-17T06:17:04.815Z,87.09
2022-08-17T06:19:42.696Z,86.55
2022-08-17T06:22:20.485Z,86.31
2022-08-17T06:25:12.843Z,85.67
2022-08-17T06:28:04.345Z,84.97
2022-08-17T06:30:59.845Z,84.35
2022-08-17T06:33:38.305Z,85.51
2022-08-17T06:36:09.832Z,84.15
2022-08-17T06:39:07.916Z,85.38
2022-08-17T06:42:02.004Z,83.56
2022-08-17T06:44:55.501Z,82.37
2022-08-17T06:47:57.208Z,81.88
2022-08-17T06:50:47.183Z,81.55
2022-08-17T06:53:31.972Z,80.31
2022-08-17T06:56:09.266Z,79.65
2022-08-17T06:58:40.210Z,79.07
2022-08-17T07:01:25.638Z,79.47
2022-08-17T07:04:26.443Z,78.59
2022-08-17T07:07:23.804Z,76.64
2022-08-17T07:09:57.075Z,76.96
2022-08-17T07:12:38.765Z,75.65
2022-08-17T07:15:16.824Z,75.55
2022-08-17T07:17:51.244Z,75.78
2022-08-17T07:20:22.810Z,75.31
2022-08-17T07:23:17.886Z,74.73
2022-08-17T07:25:46.996Z,73.04
2022-08-17T07:28:23.190Z,72.58
2022-08-17T07:30:55.405Z,71.97
2022-08-17T07:33:32.508Z,72.57
2022-08-17T07:36:29.562Z,71.08
2022-08-17T07:39:03.043Z,70.26
2022-08-17T07:41:53.168Z,69.40
2022-08-17T07:44:27.580Z,66.68
2022-08-17T07:47:16.824Z,65.61
2022-08-17T07:49:46.675Z,65.72
2022-08-17T07:52:50.398Z,67.02
2022-08-17T07:55:31.583Z,66.67
2022-08-17T07:58:03.751Z,63.79
2022-08-17T08:00:34.027Z,62.88
2022-08-17T08:03:26.077Z,64.82
2022-08-17T08:05:57.810Z,63.16
2022-08-17T08:08:28.760Z,62.23
2022-08-17T08:11:13.198Z,62.41
2022-08-17T08:13:45.553Z,62.66
2022-08-17T08:16:26.836Z,62.91
2022-08-17T08:19:00.368Z,62.04
2022-08-17T08:21:46.830Z,61.77
2022-08-17T08:24:43.152Z,60.83
2022-08-17T08:27:40.119Z,60.05
2022-08-17T08:30:12.487Z,58.79
2022-08-17T08:32:51.619Z,59.86
2022-08-17T08:35:27.187Z,62.32
2022-08-17T08:38:42.878Z,60.66
2022-08-17T08:41:47.401Z,60.28
2022-08-17T08:45:00.953Z,59.49
2022-08-17T08:47:35.504Z,57.12
2022-08-17T08:50:37.485Z,57.59
2022-08-17T08:53:30.374Z,56.90
2022-08-17T08:56:05.526Z,56.69
2022-08-17T08:58:57.454Z,56.08
2022-08-17T09:01:56.462Z,55.75
2022-08-17T09:05:12.794Z,54.83
2022-08-17T09:08:12.800Z,54.39
2022-08-17T09:10:52.814Z,55.13
2022-08-17T09:13:57.924Z,51.99
2022-08-17T09:16:39.498Z,53.02
2022-08-17T09:19:20.452Z,53.33
2022-08-17T09:21:58.823Z,52.56
2022-08-17T09:24:36.020Z,51.78
2022-08-17T09:27:09.513Z,52.15
2022-08-17T09:29:45.095Z,50.11
2022-08-17T09:32:56.911Z,48.90
2022-08-17T09:35:37.532Z,49.82
2022-08-17T09:38:32.672Z,47.30
2022-08-17T09:41:20.816Z,48.72
2022-08-17T09:44:02.953Z,50.12
2022-08-17T09:46:45.926Z,46.71
2022-08-17T09:49:37.899Z,43.91
2022-08-17T09:52:51.602Z,45.70
2022-08-17T09:55:18.852Z,43.60
2022-08-17T09:58:29.101Z,42.47
2022-08-17T10:01:17.459Z,45.09
2022-08-17T10:04:13.176Z,42.93
2022-08-17T10:07:17.925Z,42.87
2022-08-17T10:10:26.115Z,41.24
2022-08-17T10:13:24.300Z,39.85
2022-08-17T10:16:03.688Z,39.83
2022-08-17T10:18:53.263Z,41.61
2022-08-17T10:21:43.073Z,39.99
2022-08-17T10:24:36.801Z,38.26
2022-08-17T10:27:19.736Z,39.25
2022-08-17T10:30:21.282Z,38.66
2022-08-17T10:32:56.756Z,37.88
2022-08-17T10:35:57.083Z,36.72
2022-08-17T10:38:37.954Z,37.46
2022-08-17T10:41:42.681Z,37.52
2022-08-17T10:44:39.648Z,36.75
2022-08-17T10:47:13.145Z,37.58
2022-08-17T10:49:54.092Z,35.48
2022-08-17T10:52:24.850Z,33.05
2022-08-17T10:54:54.904Z,35.74
2022-08-17T10:57:41.331Z,35.91
2022-08-17T11:00:47.765Z,35.34
2022-08-17T11:03:37.846Z,34.56
2022-08-17T11:06:17.322Z,33.91
2022-08-17T11:09:09.535Z,31.77
2022-08-17T11:12:01.977Z,32.37
2022-08-17T11:14:48.120Z,32.43
2022-08-17T11:17:39.203Z,32.59
2022-08-17T11:20:32.598Z,31.39
2022-08-17T11:23:30.190Z,32.98
2022-08-17T11:26:08.522Z,31.45
2022-08-17T11:28:52.490Z,31.30
2022-08-17T11:31:39.004Z,31.39
2022-08-17T11:34:26.885Z,30.94
2022-08-17T11:37:24.956Z,30.99
2022-08-17T11:40:16.399Z,29.00
2022-08-17T11:42:48.907Z,29.73
2022-08-17T11:45:34.313Z,30.53
2022-08-17T11:48:54.767Z,29.88
2022-08-17T11:51:44.394Z,29.11
2022-08-17T11:54:33.410Z,29.63
2022-08-17T11:57:27.148Z,28.38
2022-08-17T12:00:01.110Z,29.05
2022-08-17T12:03:11.839Z,29.30
2022-08-17T12:06:21.565Z,28.05
2022-08-17T12:09:21.338Z,29.92
2022-08-17T12:12:14.302Z,29.93
2022-08-17T12:15:12.916Z,29.84
2022-08-17T12:17:51.158Z,28.23
2022-08-17T12:20:44.379Z,28.84
2022-08-17T12:23:47.817Z,29.46
2022-08-17T12:26:14.994Z,28.45
2022-08-17T12:28:47.067Z,28.28
2022-08-17T12:31:43.918Z,27.42
2022-08-17T12:34:22.282Z,27.61
2022-08-17T12:37:00.721Z,27.08
2022-08-17T12:39:29.952Z,25.86
2022-08-17T12:42:02.894Z,26.08
2022-08-17T12:44:36.824Z,27.40
2022-08-17T12:47:22.778Z,27.75
2022-08-17T12:49:54.922Z,27.21
2022-08-17T12:52:28.684Z,26.79
2022-08-17T12:55:23.612Z,25.99
2022-08-17T12:58:01.730Z,25.88
2022-08-17T13:00:41.549Z,27.17
2022-08-17T13:03:23.923Z,26.85
2022-08-17T13:06:12.583Z,25.74
2022-08-17T13:08:47.887Z,26.33
2022-08-17T13:11:16.830Z,25.58
2022-08-17T13:14:09.081Z,26.51
2022-08-17T13:16:38.237Z,26.81
2022-08-17T13:19:29.726Z,25.80
2022-08-17T13:22:12.814Z,25.83
2022-08-17T13:24:54.846Z,25.17
2022-08-17T13:27:26.583Z,24.61
2022-08-17T13:29:58.363Z,25.77
2022-08-17T13:32:33.448Z,25.08
2022-08-17T13:35:41.038Z,25.36
2022-08-17T13:38:15.091Z,25.08
2022-08-17T13:41:23.619Z,24.78
2022-08-17T13:43:51.935Z,24.91
2022-08-17T13:46:31.370Z,24.13
2022-08-17T13:49:06.572Z,23.75
2022-08-17T13:51:44.160Z,24.40
2022-08-17T13:54:32.837Z,22.91
2022-08-17T13:57:12.445Z,23.82
2022-08-17T14:00:10.080Z,26.52
2022-08-17T14:02:37.139Z,25.57
2022-08-17T14:05:06.697Z,27.18
2022-08-17T14:07:38.481Z,26.24
2022-08-17T14:10:15.711Z,25.59
2022-08-17T14:12:47.170Z,25.28
2022-08-17T14:15:24.902Z,25.01
2022-08-17T14:18:11.979Z,25.26
2022-08-17T14:20:42.392Z,25.23
2022-08-17T14:23:11.604Z,25.47
2022-08-17T14:25:38.679Z,25.39
2022-08-17T14:28:15.272Z,25.16
2022-08-17T14:30:58.794Z,25.61
2022-08-17T14:33:38.121Z,27.17
2022-08-17T14:36:08.483Z,27.32
2022-08-17T14:38:36.200Z,26.82
2022-08-17T14:41:09.058Z,27.12
2022-08-17T14:43:40.230Z,26.48
2022-08-17T14:46:42.182Z,26.22
2022-08-17T14:49:13.148Z,25.76
2022-08-17T14:51:44.026Z,25.78
2022-08-17T14:54:32.693Z,25.86
2022-08-17T14:57:11.577Z,25.99
2022-08-17T14:59:59.726Z,25.83
2022-08-17T15:02:29.631Z,25.20
2022-08-17T15:05:05.564Z,25.90
2022-08-17T15:07:32.762Z,25.52
2022-08-17T15:10:06.623Z,25.49
2022-08-17T15:12:35.927Z,25.20
2022-08-17T15:15:05.499Z,25.04
2022-08-17T15:17:44.880Z,25.10
2022-08-17T15:20:21.885Z,24.51
2022-08-17T15:22:50.227Z,24.23
2022-08-17T15:25:19.578Z,24.58
2022-08-17T15:27:49.204Z,25.03
2022-08-17T15:30:18.535Z,24.82
2022-08-17T15:32:54.470Z,26.12
2022-08-17T15:35:32.946Z,26.20
2022-08-17T15:38:11.153Z,26.41
2022-08-17T15:40:43.550Z,26.05
2022-08-17T15:43:28.827Z,26.70
2022-08-17T15:46:04.802Z,26.75
2022-08-17T15:48:44.027Z,27.20
2022-08-17T15:51:21.078Z,27.04
2022-08-17T15:53:51.421Z,27.14
2022-08-17T15:56:19.332Z,27.02
2022-08-17T15:58:48.739Z,26.78
2022-08-17T16:01:51.790Z,26.84
2022-08-17T16:04:30.249Z,27.30
2022-08-17T16:07:00.288Z,28.08
2022-08-17T16:09:36.755Z,28.00
2022-08-17T16:12:18.886Z,28.56
2022-08-17T16:14:47.916Z,29.02
2022-08-17T16:17:40.261Z,29.81
2022-08-17T16:20:19.894Z,30.45
2022-08-17T16:22:50.015Z,30.33
2022-08-17T16:25:21.122Z,30.78
2022-08-17T16:27:55.597Z,32.10
2022-08-17T16:30:28.981Z,32.91
2022-08-17T16:32:58.220Z,32.74
2022-08-17T16:35:27.499Z,33.68
2022-08-17T16:37:57.673Z,33.61
2022-08-17T16:40:39.395Z,35.10
2022-08-17T16:43:15.447Z,36.22
2022-08-17T16:45:52.320Z,37.80
2022-08-17T16:48:20.142Z,37.59
2022-08-17T16:51:03.207Z,38.59
2022-08-17T16:53:37.776Z,38.75
2022-08-17T16:56:05.280Z,42.20
2022-08-17T16:58:34.337Z,41.49
2022-08-17T17:01:01.725Z,40.75
2022-08-17T17:03:44.477Z,40.42
2022-08-17T17:07:01.390Z,41.33
2022-08-17T17:09:39.053Z,42.73
2022-08-17T17:12:18.154Z,44.52
2022-08-17T17:14:48.736Z,44.93
2022-08-17T17:17:46.826Z,45.10
2022-08-17T17:20:16.882Z,46.14
2022-08-17T17:22:55.039Z,46.31
2022-08-17T17:25:34.296Z,46.26
2022-08-17T17:28:02.820Z,45.39
2022-08-17T17:31:29.029Z,48.21
2022-08-17T17:34:00.983Z,48.23
2022-08-17T17:36:51.806Z,49.34
2022-08-17T17:39:31.151Z,46.76
2022-08-17T17:42:03.157Z,49.97
2022-08-17T17:44:47.323Z,50.07
2022-08-17T17:47:38.907Z,48.84
2022-08-17T17:50:09.455Z,50.71
2022-08-17T17:53:19.761Z,52.71
2022-08-17T17:56:21.051Z,50.83
2022-08-17T17:59:18.125Z,50.61
2022-08-17T18:01:56.950Z,51.83
2022-08-17T18:04:49.911Z,54.07
2022-08-17T18:07:43.171Z,54.62
2022-08-17T18:10:41.583Z,54.68
2022-08-17T18:13:17.847Z,54.71
2022-08-17T18:15:54.479Z,54.58
2022-08-17T18:18:44.366Z,55.26
2022-08-17T18:21:21.019Z,55.12
2022-08-17T18:23:59.489Z,56.43
2022-08-17T18:26:38.783Z,64.56
2022-08-17T18:29:30.388Z,64.28
2022-08-17T18:32:19.526Z,64.44
2022-08-17T18:35:00.569Z,64.44
2022-08-17T18:37:52.148Z,64.08
2022-08-17T18:40:35.716Z,63.23
2022-08-17T18:43:03.494Z,63.24
2022-08-17T18:46:17.360Z,63.71
2022-08-17T18:49:08.016Z,65.32
2022-08-17T18:51:43.353Z,65.99
2022-08-17T18:54:29.640Z,65.50
2022-08-17T18:57:00.041Z,64.41
2022-08-17T19:00:01.761Z,64.56
2022-08-17T19:02:46.131Z,66.07
2022-08-17T19:05:53.101Z,68.71
2022-08-17T19:08:29.202Z,71.26
2022-08-17T19:11:01.568Z,70.73
2022-08-17T19:13:36.699Z,70.48
2022-08-17T19:16:15.832Z,68.98
2022-08-17T19:18:52.808Z,69.95
2022-08-17T19:21:52.808Z,69.89
2022-08-17T19:24:26.667Z,68.40
2022-08-17T19:27:21.155Z,68.55
2022-08-17T19:30:07.747Z,66.18
2022-08-17T19:32:36.157Z,69.07
2022-08-17T19:35:17.491Z,68.08
2022-08-17T19:38:12.949Z,68.00
2022-08-17T19:41:08.341Z,66.96
2022-08-17T19:43:56.510Z,69.71
2022-08-17T19:46:48.653Z,69.56
2022-08-17T19:49:47.165Z,70.04
2022-08-17T19:52:37.764Z,70.89
2022-08-17T19:55:22.481Z,70.80
2022-08-17T19:58:04.947Z,71.98
2022-08-17T20:04:05.960Z,73.06
2022-08-17T20:06:42.507Z,73.77
2022-08-17T20:09:35.599Z,73.42
2022-08-17T20:12:19.981Z,74.99
2022-08-17T20:14:59.529Z,74.80
2022-08-17T20:17:34.915Z,74.62
2022-08-17T20:20:19.764Z,76.06
2022-08-17T20:22:57.842Z,76.06
2022-08-17T20:26:20.900Z,76.48
2022-08-17T20:29:17.183Z,76.80
2022-08-17T20:32:05.862Z,76.30
2022-08-17T20:34:38.161Z,75.28
2022-08-17T20:37:10.280Z,75.62
2022-08-17T20:39:46.308Z,76.07
2022-08-17T20:42:23.362Z,76.71
2022-08-17T20:44:59.620Z,76.88
2022-08-17T20:48:22.149Z,76.99
2022-08-17T20:51:01.256Z,77.57
2022-08-17T20:54:00.987Z,78.04
2022-08-17T20:56:49.325Z,78.25
2022-08-17T20:59:42.689Z,78.20
2022-08-17T21:02:20.446Z,77.48
2022-08-17T21:04:50.260Z,78.36
2022-08-17T21:07:43.412Z,78.80
2022-08-17T21:10:18.495Z,78.46
2022-08-17T21:13:15.648Z,78.10
2022-08-17T21:16:05.580Z,78.28
2022-08-17T21:18:52.999Z,78.51
2022-08-17T21:21:48.106Z,78.81
2022-08-17T21:24:34.843Z,79.20
2022-08-17T21:27:26.308Z,79.57
2022-08-17T21:29:59.544Z,80.66
2022-08-17T21:32:32.280Z,80.39
2022-08-17T21:35:07.008Z,81.38
2022-08-17T21:37:46.823Z,81.33
2022-08-17T21:40:37.082Z,83.01
2022-08-17T21:43:33.715Z,85.42
2022-08-17T21:46:22.247Z,87.34
2022-08-17T21:49:02.917Z,86.84
2022-08-17T21:51:50.292Z,86.81
2022-08-17T21:54:56.926Z,87.20
2022-08-17T21:57:53.237Z,88.26
2022-08-17T22:00:32.250Z,87.95
2022-08-17T22:03:03.445Z,87.38
2022-08-17T22:05:50.729Z,86.35
2022-08-17T22:08:25.188Z,87.18
2022-08-17T22:11:01.750Z,86.96
2022-08-17T22:13:31.055Z,87.17
2022-08-17T22:16:28.746Z,87.88
2022-08-17T22:18:59.393Z,86.60
2022-08-17T22:21:44.853Z,89.27
2022-08-17T22:25:08.664Z,87.42
2022-08-17T22:28:01.359Z,90.21
2022-08-17T22:30:34.965Z,89.80
2022-08-17T22:33:46.657Z,89.05
2022-08-17T22:36:42.501Z,88.60
2022-08-17T22:39:12.563Z,89.89
2022-08-17T22:42:06.605Z,87.53
2022-08-17T22:44:38.011Z,88.80
2022-08-17T22:47:41.297Z,87.20
2022-08-17T22:50:33.536Z,86.62
2022-08-17T22:53:23.079Z,86.61
2022-08-17T22:56:26.192Z,88.29
2022-08-17T22:59:15.291Z,87.91
2022-08-17T23:02:32.102Z,86.21
2022-08-17T23:05:13.433Z,86.17
2022-08-17T23:07:42.433Z,86.00
2022-08-17T23:10:12.473Z,87.07
2022-08-17T23:12:44.876Z,86.05
2022-08-17T23:15:16.196Z,86.13
2022-08-17T23:17:48.114Z,86.15
2022-08-17T23:20:18.474Z,86.19
2022-08-17T23:22:52.372Z,86.76
2022-08-17T23:25:34.918Z,87.14
2022-08-17T23:28:06.994Z,87.33
2022-08-17T23:30:42.832Z,87.74
2022-08-17T23:33:25.878Z,87.64
2022-08-17T23:36:00.837Z,87.62
2022-08-17T23:38:36.692Z,87.76
2022-08-17T23:41:17.863Z,88.33
2022-08-17T23:43:55.413Z,88.10
2022-08-17T23:46:24.769Z,88.09
2022-08-17T23:49:03.557Z,88.00
2022-08-17T23:51:42.775Z,87.75
2022-08-17T23:54:30.077Z,87.58
2022-08-17T23:56:57.183Z,87.89
2022-08-17T23:59:24.481Z,88.07
